Time;durP1;ratioP1;P1;durP2;ratioP2;P2;SDS_P1;SDS_P2;PMS_P1;PMS_P2;Temp;Humidity;BMP_temperature;BMP_pressure;BME280_temperature;BME280_humidity;BME280_pressure;Samples;Min_cycle;Max_cycle;Signal;HPM_P1;HPM_P2
2021/07/21 00:00:24;;;;;;;12.20;8.38;;;14.30;99.90;;;;;;5075435;28;20021;-75
2021/07/21 00:02:50;;;;;;;15.65;8.80;;;14.20;99.90;;;;;;5057598;28;20031;-75
2021/07/21 00:05:18;;;;;;;16.17;9.45;;;14.20;99.90;;;;;;5075594;28;20369;-75
2021/07/21 00:07:44;;;;;;;15.45;9.07;;;14.20;99.90;;;;;;5075254;28;20017;-75
2021/07/21 00:10:12;;;;;;;12.90;8.77;;;14.20;99.90;;;;;;5073651;28;20073;-75
2021/07/21 00:15:26;;;;;;;12.93;8.60;;;14.10;99.90;;;;;;5073728;28;20101;-75
2021/07/21 00:17:59;;;;;;;16.90;8.93;;;14.10;99.90;;;;;;5073508;28;20017;-76
2021/07/21 00:20:26;;;;;;;15.63;9.10;;;14.10;99.90;;;;;;5075286;28;20021;-75
2021/07/21 00:22:52;;;;;;;15.35;9.20;;;14.00;99.90;;;;;;5075147;28;20048;-75
2021/07/21 00:25:17;;;;;;;13.55;9.07;;;14.10;99.90;;;;;;5073439;28;20025;-75
2021/07/21 00:27:45;;;;;;;13.30;8.77;;;14.10;99.90;;;;;;5074589;28;20028;-75
2021/07/21 00:30:15;;;;;;;12.55;9.05;;;14.10;99.90;;;;;;5073929;28;20016;-76
2021/07/21 00:32:40;;;;;;;16.60;9.43;;;14.10;99.90;;;;;;5075015;28;20047;-76
2021/07/21 00:35:08;;;;;;;14.57;8.45;;;14.10;99.90;;;;;;5074951;28;20028;-76
2021/07/21 00:37:34;;;;;;;15.57;9.70;;;14.10;99.90;;;;;;5074931;28;20048;-75
2021/07/21 00:40:00;;;;;;;13.57;9.02;;;14.10;99.90;;;;;;5074897;28;20008;-76
2021/07/21 00:42:25;;;;;;;16.55;8.90;;;14.20;99.90;;;;;;5073183;28;20029;-75
2021/07/21 00:44:53;;;;;;;16.90;9.63;;;14.10;99.90;;;;;;5073298;28;20024;-76
2021/07/21 00:47:19;;;;;;;15.55;9.05;;;14.10;99.90;;;;;;5074733;28;20451;-75
2021/07/21 00:49:44;;;;;;;16.40;9.73;;;14.10;99.90;;;;;;5074422;28;20442;-76
2021/07/21 00:52:10;;;;;;;15.00;9.27;;;14.10;99.90;;;;;;5074205;28;20021;-76
2021/07/21 00:54:36;;;;;;;18.23;10.13;;;14.00;99.90;;;;;;5074593;28;20031;-75
2021/07/21 00:57:04;;;;;;;16.83;10.63;;;14.00;99.90;;;;;;5074592;28;20500;-76
2021/07/21 00:59:33;;;;;;;21.00;11.25;;;14.00;99.90;;;;;;5074536;28;20020;-75
2021/07/21 01:01:59;;;;;;;18.40;10.77;;;14.00;99.90;;;;;;5073357;28;20039;-76
2021/07/21 01:04:24;;;;;;;18.05;11.73;;;13.90;99.90;;;;;;5074164;28;20457;-76
2021/07/21 01:06:52;;;;;;;17.33;10.88;;;13.90;99.90;;;;;;5072650;28;20063;-75
2021/07/21 01:09:18;;;;;;;19.60;12.25;;;13.90;99.90;;;;;;5074137;28;20070;-75
2021/07/21 01:11:56;;;;;;;19.27;11.40;;;14.00;99.90;;;;;;5073877;28;20021;-76
2021/07/21 01:14:28;;;;;;;22.27;13.25;;;14.10;99.90;;;;;;5072815;28;20365;-76
2021/07/21 01:16:58;;;;;;;23.90;12.95;;;14.10;99.90;;;;;;5074343;28;20047;-76
2021/07/21 01:20:04;;;;;;;21.92;14.68;;;14.10;99.90;;;;;;5073136;28;20493;-76
2021/07/21 01:22:31;;;;;;;26.42;13.20;;;14.10;99.90;;;;;;5073653;28;20377;-76
2021/07/21 01:25:18;;;;;;;23.02;12.98;;;14.20;99.90;;;;;;5074221;28;20020;-76
2021/07/21 01:27:55;;;;;;;18.13;12.68;;;14.30;99.90;;;;;;5073615;28;20013;-76
2021/07/21 01:30:27;;;;;;;21.83;13.20;;;14.30;99.90;;;;;;5074169;28;20052;-76
2021/07/21 01:32:58;;;;;;;21.70;13.90;;;14.30;99.90;;;;;;5072730;28;20044;-76
2021/07/21 01:35:27;;;;;;;22.52;13.18;;;14.30;99.90;;;;;;5073811;28;20017;-76
2021/07/21 01:37:57;;;;;;;24.35;13.30;;;14.30;99.90;;;;;;5073073;28;20025;-76
2021/07/21 01:40:26;;;;;;;22.10;12.82;;;14.40;99.90;;;;;;5074050;28;20070;-76
2021/07/21 01:42:56;;;;;;;20.88;13.68;;;14.40;99.90;;;;;;5073262;28;20580;-76
2021/07/21 01:45:26;;;;;;;22.23;13.85;;;14.40;99.90;;;;;;5074001;28;20042;-75
2021/07/21 01:47:52;;;;;;;22.38;13.50;;;14.30;99.90;;;;;;5072246;28;20017;-76
2021/07/21 01:50:19;;;;;;;21.23;13.88;;;14.30;99.90;;;;;;5072694;28;20446;-76
2021/07/21 01:52:48;;;;;;;19.45;12.95;;;14.30;99.90;;;;;;5072797;28;20012;-76
2021/07/21 01:55:17;;;;;;;21.42;13.10;;;14.30;99.90;;;;;;5072107;28;20027;-76
2021/07/21 01:57:45;;;;;;;22.95;14.07;;;14.20;99.90;;;;;;5073884;28;20020;-76
2021/07/21 02:00:12;;;;;;;20.35;12.85;;;14.20;99.90;;;;;;5072727;28;20009;-76
2021/07/21 02:02:40;;;;;;;19.58;13.68;;;14.10;99.90;;;;;;5073739;28;20024;-76
2021/07/21 02:05:07;;;;;;;25.13;14.88;;;14.00;99.90;;;;;;5075051;28;20023;-76
2021/07/21 02:07:34;;;;;;;20.73;13.43;;;14.00;99.90;;;;;;5059464;28;20369;-76
2021/07/21 02:10:00;;;;;;;23.55;14.52;;;14.00;99.90;;;;;;5077548;28;20074;-76
2021/07/21 02:12:26;;;;;;;19.88;13.00;;;14.10;99.90;;;;;;5077744;28;20032;-76
2021/07/21 02:14:53;;;;;;;20.67;13.75;;;14.10;99.90;;;;;;5077425;28;20017;-75
2021/07/21 02:17:20;;;;;;;24.65;13.80;;;14.10;99.90;;;;;;5076483;28;20047;-75
2021/07/21 02:19:47;;;;;;;25.65;14.07;;;14.00;99.90;;;;;;5077350;28;20028;-76
2021/07/21 02:22:16;;;;;;;23.65;14.68;;;14.00;99.90;;;;;;5077285;28;20024;-76
2021/07/21 02:24:44;;;;;;;26.65;14.35;;;14.10;99.90;;;;;;5077401;28;20028;-76
2021/07/21 02:27:10;;;;;;;22.38;14.30;;;14.10;99.90;;;;;;5076316;28;20066;-76
2021/07/21 02:29:36;;;;;;;24.30;15.75;;;14.10;99.90;;;;;;5077111;28;20021;-76
2021/07/21 02:32:09;;;;;;;23.38;15.00;;;14.10;99.90;;;;;;5076819;28;20127;-76
2021/07/21 02:34:35;;;;;;;21.45;13.82;;;14.10;99.90;;;;;;5077018;28;20023;-76
2021/07/21 02:37:02;;;;;;;19.85;13.85;;;14.20;99.90;;;;;;5077275;28;20429;-76
2021/07/21 02:39:28;;;;;;;25.77;15.30;;;14.10;99.90;;;;;;5076938;28;20103;-76
2021/07/21 02:41:54;;;;;;;24.30;13.50;;;14.10;99.90;;;;;;5076912;28;20055;-76
2021/07/21 02:44:20;;;;;;;23.27;14.93;;;14.00;99.90;;;;;;5076268;28;20082;-76
2021/07/21 02:46:47;;;;;;;22.30;14.18;;;14.00;99.90;;;;;;5077054;28;20095;-76
2021/07/21 02:49:13;;;;;;;22.38;14.00;;;13.90;99.90;;;;;;5075592;28;20016;-76
2021/07/21 02:51:49;;;;;;;23.00;13.68;;;13.90;99.90;;;;;;5076686;28;20074;-76
2021/07/21 02:54:46;;;;;;;23.48;14.65;;;13.90;99.90;;;;;;5075525;28;20071;-76
2021/07/21 02:57:23;;;;;;;21.88;13.35;;;14.10;99.90;;;;;;5076920;28;20480;-76
2021/07/21 02:59:53;;;;;;;25.83;13.85;;;14.00;99.90;;;;;;5076836;28;20104;-76
2021/07/21 03:02:22;;;;;;;22.80;14.32;;;14.00;99.90;;;;;;5075048;28;20028;-76
2021/07/21 03:04:50;;;;;;;23.40;13.75;;;13.90;99.90;;;;;;5076726;28;20541;-76
2021/07/21 03:07:17;;;;;;;23.42;14.32;;;13.90;99.90;;;;;;5075260;28;20078;-76
2021/07/21 03:09:44;;;;;;;25.52;13.93;;;13.90;99.90;;;;;;5076701;28;20066;-76
2021/07/21 03:12:13;;;;;;;20.73;13.88;;;13.90;99.90;;;;;;5076099;28;20393;-76
2021/07/21 03:14:41;;;;;;;24.20;14.73;;;13.80;99.90;;;;;;5076562;28;20021;-76
2021/07/21 03:17:09;;;;;;;26.75;14.75;;;13.80;99.90;;;;;;5074560;28;20384;-76
2021/07/21 03:19:38;;;;;;;25.90;13.95;;;13.90;99.90;;;;;;5076528;28;20031;-76
2021/07/21 03:22:04;;;;;;;25.67;13.50;;;14.10;99.90;;;;;;5075308;28;20024;-76
2021/07/21 03:24:30;;;;;;;26.48;13.50;;;14.10;99.90;;;;;;5076062;28;20052;-76
2021/07/21 03:26:57;;;;;;;22.08;14.00;;;14.00;99.90;;;;;;5076368;28;20016;-76
2021/07/21 03:29:23;;;;;;;25.20;14.13;;;14.00;99.90;;;;;;5075797;28;20028;-76
2021/07/21 03:31:49;;;;;;;23.65;13.80;;;13.90;99.90;;;;;;5075142;28;20020;-76
2021/07/21 03:34:18;;;;;;;24.35;13.82;;;14.00;99.90;;;;;;5076234;28;20035;-76
2021/07/21 03:36:48;;;;;;;29.80;14.68;;;13.90;99.90;;;;;;5075013;28;20024;-76
2021/07/21 03:39:14;;;;;;;24.55;14.52;;;13.70;99.90;;;;;;5076139;28;20052;-76
2021/07/21 03:41:40;;;;;;;24.08;14.70;;;13.80;99.90;;;;;;5075549;28;20027;-76
2021/07/21 03:44:09;;;;;;;24.33;14.20;;;13.60;99.90;;;;;;5075324;28;20499;-76
2021/07/21 03:46:38;;;;;;;26.35;14.48;;;13.60;99.90;;;;;;5074585;28;20028;-77
2021/07/21 03:49:04;;;;;;;21.42;13.45;;;13.70;99.90;;;;;;5074815;28;20349;-76
2021/07/21 03:51:36;;;;;;;28.33;15.45;;;13.70;99.90;;;;;;5075859;28;20017;-76
2021/07/21 03:54:05;;;;;;;27.80;13.77;;;13.70;99.90;;;;;;5075819;28;20056;-77
2021/07/21 03:56:31;;;;;;;23.10;14.05;;;13.70;99.90;;;;;;5075825;28;20030;-76
2021/07/21 03:59:00;;;;;;;24.98;14.40;;;13.70;99.90;;;;;;5075743;28;20424;-76
2021/07/21 04:01:26;;;;;;;22.30;13.75;;;13.70;99.90;;;;;;5075381;28;20055;-77
2021/07/21 04:03:53;;;;;;;24.73;14.55;;;13.80;99.90;;;;;;5075580;28;20024;-76
2021/07/21 04:06:20;;;;;;;25.23;14.55;;;13.80;99.90;;;;;;5075296;28;20012;-76
2021/07/21 04:08:47;;;;;;;21.98;13.60;;;13.90;99.90;;;;;;5075273;28;20350;-76
2021/07/21 04:11:14;;;;;;;23.10;13.23;;;13.80;99.90;;;;;;5075498;28;20016;-76
2021/07/21 04:13:41;;;;;;;27.98;14.38;;;13.90;99.90;;;;;;5074872;28;20028;-76
2021/07/21 04:16:09;;;;;;;24.75;14.63;;;13.90;99.90;;;;;;5075380;28;20016;-76
2021/07/21 04:18:37;;;;;;;25.05;14.52;;;13.90;99.90;;;;;;5075290;28;20025;-76
2021/07/21 04:21:05;;;;;;;23.33;13.73;;;14.00;99.90;;;;;;5075303;28;20078;-76
2021/07/21 04:23:32;;;;;;;24.48;14.50;;;14.20;99.90;;;;;;5073716;28;20031;-76
2021/07/21 04:25:58;;;;;;;23.05;14.55;;;14.20;99.90;;;;;;5073733;28;20018;-76
2021/07/21 04:28:24;;;;;;;26.00;14.55;;;14.20;99.90;;;;;;5072372;28;20428;-76
2021/07/21 04:30:54;;;;;;;24.55;14.48;;;14.30;99.90;;;;;;5073250;28;20486;-76
2021/07/21 04:33:21;;;;;;;20.95;13.45;;;14.30;99.90;;;;;;5075031;28;20374;-76
2021/07/21 04:35:48;;;;;;;25.40;14.35;;;14.50;99.90;;;;;;5074693;28;20017;-76
2021/07/21 04:38:16;;;;;;;25.63;14.57;;;14.60;99.90;;;;;;5074866;28;20466;-76
2021/07/21 04:40:44;;;;;;;22.52;13.50;;;14.50;99.90;;;;;;5074876;28;20442;-76
2021/07/21 04:43:10;;;;;;;27.92;15.35;;;14.50;99.90;;;;;;5072815;28;20045;-76
2021/07/21 04:45:41;;;;;;;21.23;14.05;;;14.50;99.90;;;;;;5074550;28;20020;-76
2021/07/21 04:48:10;;;;;;;25.63;14.10;;;14.60;99.90;;;;;;5074494;28;20453;-76
2021/07/21 04:50:36;;;;;;;23.60;14.05;;;14.70;99.90;;;;;;5074709;28;20017;-76
2021/07/21 04:53:02;;;;;;;23.77;13.88;;;14.80;99.90;;;;;;5074426;28;20130;-76
2021/07/21 04:55:28;;;;;;;25.08;14.27;;;14.90;99.90;;;;;;5074331;28;20454;-76
2021/07/21 04:57:53;;;;;;;21.48;14.25;;;15.00;99.90;;;;;;5074600;28;20020;-77
2021/07/21 05:00:19;;;;;;;27.63;14.50;;;15.10;99.90;;;;;;5056219;28;20118;-76
2021/07/21 05:02:44;;;;;;;23.00;14.20;;;15.20;99.90;;;;;;5074468;28;20024;-77
2021/07/21 05:05:10;;;;;;;21.33;14.40;;;15.20;99.90;;;;;;5074503;28;20021;-76
2021/07/21 05:07:36;;;;;;;24.70;14.82;;;15.20;99.90;;;;;;5073885;28;20162;-76
2021/07/21 05:10:02;;;;;;;24.45;14.13;;;15.40;99.90;;;;;;5056048;28;20108;-76
2021/07/21 05:12:27;;;;;;;31.17;15.13;;;15.50;99.90;;;;;;5074408;28;20044;-76
2021/07/21 05:14:53;;;;;;;24.10;15.20;;;15.50;99.90;;;;;;5072454;28;20401;-76
2021/07/21 05:17:18;;;;;;;23.73;14.65;;;15.40;99.90;;;;;;5074315;28;20021;-76
2021/07/21 05:19:44;;;;;;;29.10;15.48;;;15.40;99.90;;;;;;5074068;28;20028;-76
2021/07/21 05:22:09;;;;;;;25.30;15.15;;;15.50;99.90;;;;;;5073207;28;20426;-76
2021/07/21 05:24:35;;;;;;;28.08;14.88;;;15.70;99.90;;;;;;5072654;28;20066;-76
2021/07/21 05:27:00;;;;;;;24.83;15.00;;;15.70;99.90;;;;;;5074143;28;20016;-76
2021/07/21 05:29:26;;;;;;;24.58;14.60;;;15.70;99.90;;;;;;5073559;28;20016;-76
2021/07/21 05:31:51;;;;;;;23.20;14.20;;;15.70;99.90;;;;;;5074082;28;20031;-76
2021/07/21 05:34:17;;;;;;;23.65;14.05;;;15.70;99.90;;;;;;5074047;28;20017;-76
2021/07/21 05:36:42;;;;;;;25.23;14.85;;;15.80;99.90;;;;;;5073814;28;20413;-76
2021/07/21 05:39:09;;;;;;;25.50;14.13;;;15.80;99.90;;;;;;5073657;28;20410;-76
2021/07/21 05:41:35;;;;;;;24.77;15.10;;;15.80;99.90;;;;;;5073970;28;20021;-77
2021/07/21 05:44:01;;;;;;;29.33;15.50;;;15.90;99.90;;;;;;5073274;28;20055;-76
2021/07/21 05:46:26;;;;;;;25.73;15.77;;;16.00;99.90;;;;;;5073921;28;20087;-77
2021/07/21 05:48:52;;;;;;;24.17;15.15;;;16.00;99.90;;;;;;5073990;28;20078;-77
2021/07/21 05:51:18;;;;;;;21.90;15.20;;;16.10;99.90;;;;;;5055389;28;20067;-77
2021/07/21 05:53:43;;;;;;;24.92;16.20;;;16.30;99.90;;;;;;5073360;28;20167;-77
2021/07/21 05:56:13;;;;;;;23.45;15.15;;;16.40;99.90;;;;;;5073575;28;20439;-77
2021/07/21 05:58:39;;;;;;;20.48;13.85;;;16.50;99.90;;;;;;5073462;28;20406;-77
2021/07/21 06:01:05;;;;;;;23.00;13.75;;;16.60;99.90;;;;;;5073497;28;20070;-76
2021/07/21 06:03:31;;;;;;;20.70;14.20;;;16.60;99.90;;;;;;5073212;28;20055;-76
2021/07/21 06:05:56;;;;;;;27.27;14.27;;;16.70;99.90;;;;;;5073422;28;20028;-77
2021/07/21 06:08:22;;;;;;;22.90;14.30;;;16.60;99.90;;;;;;5070901;28;20016;-77
2021/07/21 06:10:48;;;;;;;23.67;13.15;;;16.80;99.90;;;;;;5073239;28;20502;-77
2021/07/21 06:13:13;;;;;;;22.02;13.73;;;16.90;99.90;;;;;;5074008;28;20016;-78
2021/07/21 06:15:40;;;;;;;20.77;13.98;;;17.00;99.90;;;;;;5077232;28;20078;-76
2021/07/21 06:18:06;;;;;;;21.02;13.98;;;17.20;99.90;;;;;;5072012;28;20029;-76
2021/07/21 06:20:31;;;;;;;21.42;13.60;;;17.20;99.90;;;;;;5072791;28;20028;-76
2021/07/21 06:22:57;;;;;;;21.65;13.95;;;17.40;99.90;;;;;;5072516;28;20060;-76
2021/07/21 06:25:23;;;;;;;24.77;14.15;;;17.50;99.90;;;;;;5072292;28;20474;-76
2021/07/21 06:27:50;;;;;;;20.08;13.05;;;17.70;99.90;;;;;;5072860;28;20406;-77
2021/07/21 06:30:16;;;;;;;19.80;12.50;;;18.20;99.90;;;;;;5075470;28;20052;-77
2021/07/21 06:32:42;;;;;;;23.00;13.80;;;18.50;99.90;;;;;;5072134;28;20023;-77
2021/07/21 06:35:09;;;;;;;25.58;15.45;;;18.70;99.90;;;;;;5070075;28;20508;-76
2021/07/21 06:37:34;;;;;;;29.40;15.70;;;18.80;99.90;;;;;;5070402;28;20067;-77
2021/07/21 06:40:00;;;;;;;25.60;16.13;;;19.10;99.90;;;;;;5062584;28;20016;-77
2021/07/21 06:42:26;;;;;;;28.80;15.52;;;19.00;99.90;;;;;;5071698;28;20450;-77
2021/07/21 06:44:53;;;;;;;26.17;15.07;;;19.20;99.90;;;;;;5070461;28;20426;-76
2021/07/21 06:47:20;;;;;;;25.85;14.43;;;19.40;99.90;;;;;;5062357;28;20020;-77
2021/07/21 06:49:48;;;;;;;31.17;15.82;;;19.80;99.90;;;;;;5068823;28;20369;-77
2021/07/21 06:52:13;;;;;;;24.73;15.38;;;20.00;99.90;;;;;;5074593;28;20017;-76
2021/07/21 06:54:39;;;;;;;24.33;14.70;;;20.00;99.90;;;;;;5076218;28;20027;-77
2021/07/21 06:57:05;;;;;;;26.23;14.88;;;20.20;99.90;;;;;;5061854;28;20401;-76
2021/07/21 06:59:32;;;;;;;26.63;15.02;;;20.80;99.90;;;;;;5075659;28;20025;-77
2021/07/21 07:01:58;;;;;;;25.38;14.85;;;21.10;99.90;;;;;;5070328;28;20017;-76
2021/07/21 07:04:23;;;;;;;23.63;14.20;;;21.00;99.90;;;;;;5075300;28;20028;-77
2021/07/21 07:06:49;;;;;;;24.55;15.07;;;21.30;99.90;;;;;;5065396;28;20024;-76
2021/07/21 07:09:14;;;;;;;27.10;14.23;;;21.20;99.90;;;;;;5076051;28;20377;-76
2021/07/21 07:11:40;;;;;;;22.58;14.38;;;21.10;99.90;;;;;;5071606;28;20132;-76
2021/07/21 07:14:08;;;;;;;20.95;13.23;;;21.20;99.90;;;;;;5075571;28;20063;-76
2021/07/21 07:16:34;;;;;;;21.38;13.43;;;21.50;99.90;;;;;;5063038;28;20043;-76
2021/07/21 07:18:59;;;;;;;22.83;13.68;;;21.70;99.90;;;;;;5073935;28;20462;-76
2021/07/21 07:21:28;;;;;;;26.67;13.63;;;21.80;99.90;;;;;;5061612;28;20328;-76
2021/07/21 07:23:55;;;;;;;28.45;13.77;;;21.70;99.90;;;;;;5058755;28;20060;-76
2021/07/21 07:26:22;;;;;;;23.00;13.80;;;21.80;99.90;;;;;;5066993;28;20019;-75
2021/07/21 07:28:47;;;;;;;22.63;13.00;;;21.90;99.90;;;;;;5058955;28;20058;-76
2021/07/21 07:31:13;;;;;;;21.98;15.13;;;21.80;99.90;;;;;;5064509;28;20021;-76
2021/07/21 07:33:38;;;;;;;25.45;13.23;;;21.80;99.90;;;;;;5072581;28;20085;-76
2021/07/21 07:36:05;;;;;;;21.52;12.27;;;21.70;99.90;;;;;;5056955;28;20484;-76
2021/07/21 07:38:39;;;;;;;21.20;12.15;;;21.90;99.90;;;;;;5054620;28;20152;-76
2021/07/21 07:41:04;;;;;;;19.63;12.15;;;21.90;99.90;;;;;;5062164;28;20374;-76
2021/07/21 07:43:30;;;;;;;21.17;12.10;;;22.30;99.90;;;;;;5074462;28;20037;-76
2021/07/21 07:45:57;;;;;;;26.42;12.23;;;22.70;99.90;;;;;;5071615;28;20025;-76
2021/07/21 07:48:25;;;;;;;21.83;12.35;;;22.50;99.90;;;;;;5073023;28;20012;-75
2021/07/21 07:50:51;;;;;;;21.42;11.70;;;22.00;99.90;;;;;;5068182;28;20215;-76
2021/07/21 07:53:17;;;;;;;24.55;12.80;;;21.70;99.90;;;;;;5068814;28;20478;-76
2021/07/21 07:55:43;;;;;;;30.30;12.50;;;22.20;99.90;;;;;;5070657;28;20108;-76
2021/07/21 07:58:10;;;;;;;18.98;11.25;;;22.60;99.90;;;;;;5056087;28;20048;-76
2021/07/21 08:00:36;;;;;;;15.55;10.43;;;22.80;99.90;;;;;;5053914;28;20025;-75
2021/07/21 08:03:01;;;;;;;18.88;10.68;;;23.10;99.90;;;;;;5057621;28;20103;-76
2021/07/21 08:05:27;;;;;;;14.95;11.15;;;23.20;99.90;;;;;;5074527;28;20021;-76
2021/07/21 08:07:53;;;;;;;16.85;11.18;;;23.00;99.90;;;;;;5072994;28;20477;-76
2021/07/21 08:10:18;;;;;;;17.60;10.10;;;23.00;99.90;;;;;;5072628;28;20099;-76
2021/07/21 08:12:44;;;;;;;16.42;10.68;;;23.40;99.90;;;;;;5072983;28;20013;-76
2021/07/21 08:15:13;;;;;;;16.10;10.50;;;23.70;99.90;;;;;;5052056;28;20365;-76
2021/07/21 08:17:39;;;;;;;19.98;10.70;;;23.70;99.90;;;;;;5068807;28;20051;-76
2021/07/21 08:20:06;;;;;;;14.90;11.15;;;23.40;99.90;;;;;;5074146;28;20059;-76
2021/07/21 08:22:39;;;;;;;17.67;10.70;;;23.40;99.90;;;;;;5071101;28;20059;-76
2021/07/21 08:25:08;;;;;;;15.90;10.68;;;23.40;99.90;;;;;;5073494;28;20031;-76
2021/07/21 08:27:34;;;;;;;20.80;11.23;;;23.70;99.90;;;;;;5060644;28;20025;-76
2021/07/21 08:29:59;;;;;;;20.85;11.75;;;23.90;99.90;;;;;;5054612;28;20017;-75
2021/07/21 08:32:25;;;;;;;22.17;10.90;;;24.00;99.90;;;;;;5057031;28;20021;-76
2021/07/21 08:34:50;;;;;;;15.77;10.82;;;23.90;99.90;;;;;;5066474;28;20042;-75
2021/07/21 08:37:16;;;;;;;13.65;9.73;;;24.20;99.90;;;;;;5065830;28;20150;-76
2021/07/21 08:39:42;;;;;;;13.95;9.52;;;24.10;99.90;;;;;;5067773;28;20078;-76
2021/07/21 08:42:10;;;;;;;17.90;10.05;;;23.60;99.90;;;;;;5054108;28;20430;-76
2021/07/21 08:44:37;;;;;;;16.88;11.23;;;23.70;99.90;;;;;;5073161;28;20044;-75
2021/07/21 08:47:07;;;;;;;15.43;10.35;;;24.20;99.90;;;;;;5055715;28;20016;-75
2021/07/21 08:49:32;;;;;;;15.55;9.45;;;24.50;99.90;;;;;;5065716;28;20113;-76
2021/07/21 08:51:59;;;;;;;14.57;9.88;;;25.00;99.90;;;;;;5061428;28;20056;-76
2021/07/21 08:54:26;;;;;;;14.73;9.57;;;25.10;99.90;;;;;;5063235;28;20462;-76
2021/07/21 08:56:54;;;;;;;16.75;9.68;;;25.10;99.90;;;;;;5055148;28;20025;-75
2021/07/21 08:59:21;;;;;;;16.85;11.63;;;25.30;99.90;;;;;;5072698;28;20477;-76
2021/07/21 09:01:46;;;;;;;14.45;10.07;;;25.10;99.90;;;;;;5063651;28;20063;-76
2021/07/21 09:04:12;;;;;;;15.50;10.15;;;25.00;99.90;;;;;;5058653;28;20044;-76
2021/07/21 09:06:39;;;;;;;14.32;10.13;;;25.10;99.90;;;;;;5072563;28;20020;-76
2021/07/21 09:09:04;;;;;;;17.42;9.55;;;24.80;99.90;;;;;;5062013;28;20013;-76
2021/07/21 09:11:31;;;;;;;14.98;10.45;;;25.10;99.90;;;;;;5060328;28;20100;-76
2021/07/21 09:13:57;;;;;;;13.02;9.68;;;25.40;99.90;;;;;;5067772;28;20503;-76
2021/07/21 09:16:22;;;;;;;14.68;9.77;;;25.20;99.90;;;;;;5068623;28;20107;-75
2021/07/21 09:18:50;;;;;;;11.00;8.57;;;25.00;99.90;;;;;;5070979;28;20124;-76
2021/07/21 09:21:19;;;;;;;14.35;9.35;;;25.10;99.90;;;;;;5056000;28;20463;-75
2021/07/21 09:23:49;;;;;;;11.82;9.00;;;25.50;99.90;;;;;;5072858;28;20450;-76
2021/07/21 09:26:32;;;;;;;11.75;8.18;;;25.60;99.90;;;;;;5068459;28;20013;-75
2021/07/21 09:28:59;;;;;;;13.48;8.07;;;25.60;99.90;;;;;;5070025;28;20020;-76
2021/07/21 09:31:34;;;;;;;9.65;7.70;;;25.70;99.90;;;;;;5069594;28;20028;-75
2021/07/21 09:34:12;;;;;;;13.43;8.48;;;25.20;99.90;;;;;;5078206;28;20055;-76
2021/07/21 09:36:39;;;;;;;12.07;8.13;;;25.50;99.90;;;;;;5054423;28;20024;-76
2021/07/21 09:39:04;;;;;;;11.32;7.72;;;25.60;99.90;;;;;;5062886;28;20449;-75
2021/07/21 09:41:30;;;;;;;9.52;7.68;;;25.50;99.90;;;;;;5071413;28;20031;-75
2021/07/21 09:44:04;;;;;;;10.60;8.10;;;25.50;99.90;;;;;;5047165;28;20028;-75
2021/07/21 09:46:34;;;;;;;16.23;8.38;;;25.40;99.90;;;;;;5045334;28;20021;-75
2021/07/21 09:48:59;;;;;;;14.05;7.65;;;25.40;99.90;;;;;;5068511;28;20031;-75
2021/07/21 09:51:28;;;;;;;9.75;7.28;;;25.40;99.90;;;;;;5072919;28;20021;-75
2021/07/21 09:53:54;;;;;;;7.07;5.88;;;25.40;99.90;;;;;;5070390;28;20024;-75
2021/07/21 09:56:34;;;;;;;10.90;6.40;;;24.90;99.90;;;;;;5072767;28;20038;-75
2021/07/21 09:59:21;;;;;;;8.52;6.18;;;24.80;99.90;;;;;;5069556;28;20378;-75
2021/07/21 10:01:47;;;;;;;7.70;5.68;;;24.70;99.90;;;;;;5072635;28;20088;-75
2021/07/21 10:04:16;;;;;;;7.10;3.97;;;24.50;99.90;;;;;;5054823;28;20059;-75
2021/07/21 10:06:42;;;;;;;6.45;3.97;;;24.00;99.90;;;;;;5052217;28;20013;-75
2021/07/21 10:09:08;;;;;;;5.45;4.28;;;24.00;99.90;;;;;;5071886;28;20023;-75
2021/07/21 10:11:36;;;;;;;5.53;4.18;;;24.10;99.90;;;;;;5071758;28;20021;-75
2021/07/21 10:16:49;;;;;;;4.97;4.20;;;23.20;99.90;;;;;;5113771;27;1165616;-75
2021/07/21 10:19:23;;;;;;;6.97;4.63;;;22.90;99.90;;;;;;5131040;27;20072;-75
2021/07/21 10:21:53;;;;;;;7.22;4.55;;;23.00;99.90;;;;;;5128641;28;20115;-74
2021/07/21 10:24:20;;;;;;;8.27;6.05;;;23.10;99.90;;;;;;5130796;28;20068;-75
2021/07/21 10:26:46;;;;;;;8.93;6.40;;;23.10;99.90;;;;;;5113503;27;20077;-75
2021/07/21 10:29:13;;;;;;;8.68;6.03;;;23.20;99.90;;;;;;5128682;28;20027;-74
2021/07/21 10:31:40;;;;;;;11.85;6.75;;;23.10;99.90;;;;;;5131202;27;20052;-74
2021/07/21 10:34:06;;;;;;;9.40;6.30;;;23.20;99.90;;;;;;5121636;27;20369;-74
2021/07/21 10:36:34;;;;;;;14.52;7.50;;;23.00;99.90;;;;;;5123576;28;21430;-74
2021/07/21 10:39:02;;;;;;;11.15;7.50;;;23.00;99.90;;;;;;5120542;28;20309;-74
2021/07/21 10:41:30;;;;;;;11.50;7.15;;;22.90;99.90;;;;;;5122301;27;20092;-74
2021/07/21 10:43:57;;;;;;;8.75;7.03;;;22.90;99.90;;;;;;5117112;28;20083;-74
2021/07/21 11:00:06;;;;;;;11.88;6.88;;;23.70;99.90;;;;;;5110438;27;20392;-74
2021/07/21 11:02:32;;;;;;;8.00;6.68;;;24.20;99.90;;;;;;5093618;28;20055;-74
2021/07/21 11:04:57;;;;;;;8.30;6.25;;;24.00;99.90;;;;;;5091871;28;20418;-75
2021/07/21 11:07:51;;;;;;;9.73;5.60;;;24.00;99.90;;;;;;5105110;28;20024;-74
2021/07/21 11:10:31;;;;;;;7.72;5.40;;;24.00;99.90;;;;;;5088864;28;20384;-74
2021/07/21 11:12:57;;;;;;;6.53;5.03;;;24.30;99.90;;;;;;5089887;28;20036;-74
2021/07/21 11:15:45;;;;;;;10.10;5.85;;;24.30;99.90;;;;;;5088974;28;20416;-75
2021/07/21 11:18:34;;;;;;;9.52;6.75;;;24.20;99.90;;;;;;5078834;28;20411;-75
2021/07/21 11:21:11;;;;;;;8.63;6.75;;;24.10;99.90;;;;;;5088914;28;20031;-74
2021/07/21 11:29:30;;;;;;;8.88;6.68;;;23.90;99.90;;;;;;5096895;27;20364;-74
2021/07/21 11:34:36;;;;;;;9.60;6.78;;;24.40;99.90;;;;;;5110755;27;20291;-76
2021/07/21 11:37:06;;;;;;;10.55;7.10;;;24.60;99.90;;;;;;5105911;28;20032;-77
2021/07/21 11:39:42;;;;;;;10.25;6.20;;;24.10;99.90;;;;;;5093439;28;20024;-77
2021/07/21 11:42:30;;;;;;;11.00;6.85;;;24.10;99.90;;;;;;5105018;28;20056;-76
2021/07/21 11:45:12;;;;;;;9.82;7.10;;;24.40;99.90;;;;;;5089501;28;20029;-76
2021/07/21 11:47:56;;;;;;;8.90;6.05;;;24.70;99.90;;;;;;5100079;28;20388;-76
2021/07/21 11:50:26;;;;;;;8.73;6.50;;;24.40;99.90;;;;;;5111215;28;20019;-76
2021/07/21 11:52:54;;;;;;;9.32;6.68;;;24.30;99.90;;;;;;5109597;28;20046;-76
2021/07/21 11:55:22;;;;;;;8.27;6.70;;;24.10;99.90;;;;;;5108635;28;20461;-76
2021/07/21 11:57:49;;;;;;;9.43;6.80;;;24.10;99.90;;;;;;5096916;28;20053;-77
2021/07/21 12:00:18;;;;;;;9.02;7.13;;;24.00;99.90;;;;;;5109420;28;20017;-76
2021/07/21 12:02:43;;;;;;;10.23;7.22;;;23.90;99.90;;;;;;5107963;28;20016;-77
2021/07/21 12:05:10;;;;;;;11.63;6.88;;;23.90;99.90;;;;;;5088197;28;20131;-77
2021/07/21 12:07:37;;;;;;;10.80;7.60;;;23.70;99.90;;;;;;5106021;28;20087;-80
2021/07/21 12:10:18;;;;;;;12.30;8.18;;;23.70;99.90;;;;;;5097921;28;20121;-80
2021/07/21 12:12:45;;;;;;;9.77;7.30;;;23.50;99.90;;;;;;5114159;28;20031;-80
2021/07/21 12:15:14;;;;;;;8.70;6.38;;;23.50;99.90;;;;;;5097442;28;20486;-80
2021/07/21 12:17:40;;;;;;;10.52;7.55;;;23.50;99.90;;;;;;5100062;28;20068;-80
2021/07/21 12:20:10;;;;;;;10.02;7.68;;;23.70;99.90;;;;;;5106035;28;20036;-80
2021/07/21 12:22:38;;;;;;;8.95;7.38;;;23.60;99.90;;;;;;5100984;28;20109;-80
2021/07/21 12:25:08;;;;;;;10.85;7.63;;;23.50;99.90;;;;;;5074322;28;20063;-78
2021/07/21 12:27:39;;;;;;;10.82;7.50;;;23.50;99.90;;;;;;5098558;28;20380;-78
2021/07/21 12:30:09;;;;;;;9.65;6.93;;;23.50;99.90;;;;;;5108749;28;20020;-77
2021/07/21 12:32:35;;;;;;;10.10;7.88;;;23.40;99.90;;;;;;5087835;28;20054;-78
2021/07/21 12:35:01;;;;;;;10.85;8.13;;;23.40;99.90;;;;;;5087729;28;20077;-77
2021/07/21 12:37:29;;;;;;;9.88;7.82;;;23.60;99.90;;;;;;5093788;28;20374;-77
2021/07/21 12:39:58;;;;;;;11.95;7.70;;;23.60;99.90;;;;;;5070870;28;20027;-77
2021/07/21 12:42:29;;;;;;;9.82;7.47;;;23.70;99.90;;;;;;5106061;28;20427;-78
2021/07/21 12:45:12;;;;;;;14.10;8.95;;;23.50;99.90;;;;;;5101621;28;20496;-78
2021/07/21 12:47:40;;;;;;;9.88;7.88;;;23.60;99.90;;;;;;5076508;28;20060;-77
2021/07/21 12:50:18;;;;;;;9.63;7.57;;;23.50;99.90;;;;;;5073806;28;20031;-78
2021/07/21 12:52:47;;;;;;;9.80;7.63;;;23.80;99.90;;;;;;5093292;28;20024;-77
2021/07/21 12:55:16;;;;;;;10.63;7.60;;;23.50;99.90;;;;;;5074253;28;20028;-77
2021/07/21 12:57:48;;;;;;;12.98;8.35;;;23.50;99.90;;;;;;5071406;28;20027;-77
2021/07/21 13:00:18;;;;;;;13.27;8.57;;;23.60;99.90;;;;;;5088864;28;20028;-77
2021/07/21 13:03:13;;;;;;;10.90;8.57;;;23.20;99.90;;;;;;5092951;28;20024;-78